createdAt,value
2024-01-05T00:03:46.407Z,50.88
2024-01-05T00:08:39.137Z,49.33
2024-01-05T00:13:31.142Z,52.35
2024-01-05T00:18:23.316Z,52.80
2024-01-05T00:23:15.329Z,55.15
2024-01-05T00:28:07.465Z,51.33
2024-01-05T00:32:59.449Z,59.15
2024-01-05T00:37:51.389Z,60.30
2024-01-05T00:42:43.267Z,59.88
2024-01-05T00:47:35.239Z,59.50
2024-01-05T00:52:27.296Z,57.08
2024-01-05T00:57:19.272Z,61.20
2024-01-05T01:02:11.217Z,57.35
2024-01-05T01:07:03.042Z,52.08
2024-01-05T01:11:54.959Z,55.65
2024-01-05T01:16:46.958Z,50.90
2024-01-05T01:21:38.773Z,50.53
2024-01-05T01:26:31.071Z,53.42
2024-01-05T01:31:23.012Z,53.28
2024-01-05T01:36:14.946Z,56.20
2024-01-05T01:41:06.885Z,57.90
2024-01-05T01:46:02.000Z,53.03
2024-01-05T01:50:57.020Z,53.60
2024-01-05T01:55:50.244Z,59.92
2024-01-05T02:00:43.773Z,62.17
2024-01-05T02:05:35.871Z,57.08
2024-01-05T02:10:27.725Z,57.22
2024-01-05T02:15:20.126Z,57.95
2024-01-05T02:20:12.011Z,64.05
2024-01-05T02:25:04.571Z,57.90
2024-01-05T02:29:56.441Z,69.90
2024-01-05T02:34:48.712Z,66.82
2024-01-05T02:39:40.604Z,68.15
2024-01-05T02:44:32.503Z,69.13
2024-01-05T02:49:24.488Z,67.93
2024-01-05T02:54:16.442Z,70.35
2024-01-05T02:59:08.613Z,73.43
2024-01-05T03:04:02.483Z,72.22
2024-01-05T03:08:54.749Z,66.13
2024-01-05T03:13:46.541Z,77.10
2024-01-05T03:18:38.844Z,71.47
2024-01-05T03:23:30.764Z,69.40
2024-01-05T03:28:22.605Z,74.28
2024-01-05T03:33:14.686Z,70.28
2024-01-05T03:38:06.654Z,66.90
2024-01-05T03:42:58.539Z,69.50
2024-01-05T03:47:50.395Z,77.97
2024-01-05T03:52:42.205Z,66.32
2024-01-05T03:57:34.079Z,70.18
2024-01-05T04:02:25.983Z,67.47
2024-01-05T04:07:17.950Z,65.90
2024-01-05T04:12:10.989Z,68.72
2024-01-05T04:17:02.950Z,67.00
2024-01-05T04:21:55.117Z,61.90
2024-01-05T04:26:48.079Z,62.55
2024-01-05T04:31:40.015Z,63.20
2024-01-05T04:36:31.907Z,68.47
2024-01-05T04:41:25.296Z,61.85
2024-01-05T04:46:18.600Z,69.07
2024-01-05T04:51:11.314Z,58.30
2024-01-05T04:56:04.547Z,56.38
2024-01-05T05:00:56.832Z,60.08
2024-01-05T05:05:48.876Z,63.92
2024-01-05T05:10:41.104Z,60.80
2024-01-05T05:15:33.106Z,54.03
2024-01-05T05:20:24.964Z,62.72
2024-01-05T05:25:16.954Z,57.05
2024-01-05T05:30:09.828Z,64.00
2024-01-05T05:35:01.853Z,58.33
2024-01-05T05:39:53.796Z,61.97
2024-01-05T05:44:45.810Z,63.53
2024-01-05T05:49:38.270Z,58.78
2024-01-05T05:54:30.225Z,59.60
2024-01-05T05:59:22.043Z,66.53
2024-01-05T06:04:14.922Z,64.30
2024-01-05T06:09:08.905Z,57.17
2024-01-05T06:14:00.805Z,67.47
2024-01-05T06:18:52.850Z,57.35
2024-01-05T06:23:45.255Z,58.95
2024-01-05T06:28:37.104Z,58.88
2024-01-05T06:33:29.106Z,63.45
2024-01-05T06:38:21.047Z,65.13
2024-01-05T06:43:12.961Z,71.13
2024-01-05T06:48:06.474Z,62.30
2024-01-05T06:52:58.488Z,69.38
2024-01-05T06:57:50.388Z,61.08
2024-01-05T07:02:42.406Z,66.03
2024-01-05T07:07:34.611Z,76.57
2024-01-05T07:12:28.838Z,67.32
2024-01-05T07:17:20.787Z,63.45
2024-01-05T07:22:12.845Z,63.60
2024-01-05T07:27:06.497Z,66.00
2024-01-05T07:31:58.812Z,72.13
2024-01-05T07:36:51.727Z,72.43
2024-01-05T07:41:43.954Z,69.32
2024-01-05T07:46:42.516Z,73.63
2024-01-05T07:56:26.136Z,70.20
2024-01-05T08:01:18.850Z,69.22
2024-01-05T08:06:15.447Z,64.85
2024-01-05T08:11:07.300Z,69.13
2024-01-05T08:15:59.260Z,72.10
2024-01-05T08:20:51.793Z,71.53
2024-01-05T08:25:43.747Z,76.95
2024-01-05T08:30:35.820Z,76.43
2024-01-05T08:35:28.255Z,73.63
2024-01-05T08:40:20.311Z,70.43
2024-01-05T08:45:12.538Z,77.80
2024-01-05T08:50:05.167Z,74.80
2024-01-05T08:54:56.938Z,67.80
2024-01-05T08:59:48.800Z,73.13
2024-01-05T09:04:40.774Z,64.45
2024-01-05T09:09:32.765Z,76.20
2024-01-05T09:14:24.597Z,69.88
2024-01-05T09:19:16.757Z,71.45
2024-01-05T09:24:08.791Z,64.35
2024-01-05T09:29:00.774Z,80.80
2024-01-05T09:33:52.814Z,65.85
2024-01-05T09:38:45.226Z,63.63
2024-01-05T09:43:37.658Z,84.40
2024-01-05T09:48:36.410Z,79.85
2024-01-05T09:53:32.135Z,71.20
2024-01-05T09:58:23.974Z,76.45
2024-01-05T10:03:24.000Z,75.30
2024-01-05T10:08:15.927Z,67.18
2024-01-05T10:13:07.857Z,69.18
2024-01-05T10:18:16.362Z,70.88
2024-01-05T10:23:08.346Z,69.28
2024-01-05T10:28:00.494Z,75.35
2024-01-05T10:33:09.257Z,69.30
2024-01-05T10:38:12.691Z,69.10
2024-01-05T10:43:16.056Z,66.35
2024-01-05T10:48:13.017Z,72.15
2024-01-05T10:53:12.609Z,78.07
2024-01-05T10:58:07.769Z,70.43
2024-01-05T11:03:18.971Z,73.72
2024-01-05T11:08:46.243Z,71.13
2024-01-05T11:13:41.968Z,73.03
2024-01-05T11:18:46.902Z,78.35
2024-01-05T11:23:40.454Z,72.82
2024-01-05T11:28:40.102Z,61.78
2024-01-05T11:33:48.590Z,75.80
2024-01-05T11:38:48.578Z,74.18
2024-01-05T11:43:40.934Z,79.80
2024-01-05T11:48:37.390Z,66.03
2024-01-05T11:53:30.768Z,71.55
2024-01-05T11:58:27.053Z,70.97
2024-01-05T12:03:22.394Z,69.20
2024-01-05T12:08:16.384Z,69.30
2024-01-05T12:13:11.767Z,66.18
2024-01-05T12:18:19.449Z,63.75
2024-01-05T12:23:20.221Z,62.47
2024-01-05T12:28:18.432Z,63.30
2024-01-05T12:33:10.576Z,62.95
2024-01-05T12:38:02.528Z,67.05
2024-01-05T12:42:54.944Z,64.25
2024-01-05T12:47:46.957Z,65.15
2024-01-05T12:52:39.264Z,64.18
2024-01-05T12:57:39.710Z,53.60
2024-01-05T13:02:42.287Z,74.18
2024-01-05T13:07:37.494Z,59.78
2024-01-05T13:12:30.584Z,64.05
2024-01-05T13:17:23.793Z,59.28
2024-01-05T13:22:15.891Z,63.33
2024-01-05T13:27:09.568Z,59.97
2024-01-05T13:32:01.517Z,61.08
2024-01-05T13:36:53.480Z,64.07
2024-01-05T13:41:45.377Z,65.35
2024-01-05T13:46:37.314Z,60.35
2024-01-05T13:51:29.230Z,62.25
2024-01-05T13:56:21.476Z,67.30
2024-01-05T14:01:13.498Z,63.28
2024-01-05T14:06:10.308Z,63.08
2024-01-05T14:11:02.362Z,67.40
2024-01-05T14:15:54.540Z,60.97
2024-01-05T14:20:46.414Z,64.60
2024-01-05T14:25:39.028Z,61.42
2024-01-05T14:30:31.058Z,70.07
2024-01-05T14:35:23.033Z,62.25
2024-01-05T14:40:15.013Z,65.05
2024-01-05T14:45:07.342Z,62.05
2024-01-05T14:49:59.505Z,74.95
2024-01-05T14:54:51.520Z,70.20
2024-01-05T14:59:43.554Z,74.03
2024-01-05T15:04:35.615Z,68.10
2024-01-05T15:09:28.140Z,79.40
2024-01-05T15:14:20.054Z,73.00
2024-01-05T15:19:14.098Z,68.70
2024-01-05T15:24:06.328Z,77.88
2024-01-05T15:29:03.735Z,71.95
2024-01-05T15:33:57.163Z,76.28
2024-01-05T15:38:51.279Z,72.32
2024-01-05T15:43:43.180Z,96.38
2024-01-05T15:48:35.327Z,88.40
2024-01-05T15:53:28.184Z,73.85
2024-01-05T15:58:20.162Z,88.20
2024-01-05T16:03:12.204Z,76.75
2024-01-05T16:08:04.998Z,83.45
2024-01-05T16:12:56.887Z,76.22
2024-01-05T16:17:48.921Z,78.65
2024-01-05T16:22:40.802Z,76.85
2024-01-05T16:27:35.855Z,76.18
2024-01-05T16:32:29.141Z,68.82
2024-01-05T16:37:20.927Z,71.97
2024-01-05T16:42:12.928Z,68.32
2024-01-05T16:47:04.812Z,64.60
2024-01-05T16:51:56.969Z,68.38
2024-01-05T16:56:52.734Z,77.57
2024-01-05T17:01:47.004Z,74.97
2024-01-05T17:06:41.986Z,64.80
2024-01-05T17:11:34.090Z,74.55
2024-01-05T17:16:26.630Z,58.60
2024-01-05T17:21:18.973Z,64.18
2024-01-05T17:26:10.826Z,57.47
2024-01-05T17:31:02.947Z,54.13
2024-01-05T17:35:58.473Z,45.88
2024-01-05T17:40:50.382Z,45.80
2024-01-05T17:45:42.987Z,39.95
2024-01-05T17:50:34.841Z,33.17
2024-01-05T17:55:27.108Z,32.83
2024-01-05T18:00:19.220Z,30.30
2024-01-05T18:05:11.176Z,28.75
2024-01-05T18:10:03.128Z,20.67
2024-01-05T18:14:54.910Z,23.65
2024-01-05T18:19:47.619Z,23.67
2024-01-05T18:24:39.844Z,23.67
2024-01-05T18:29:31.753Z,20.63
2024-01-05T18:34:25.168Z,20.13
2024-01-05T18:39:17.210Z,20.70
2024-01-05T18:44:14.512Z,17.67
2024-01-05T18:49:07.753Z,18.00
2024-01-05T18:54:00.633Z,16.58
2024-01-05T18:58:52.727Z,17.15
2024-01-05T19:03:45.261Z,15.35
2024-01-05T19:08:37.251Z,16.23
2024-01-05T19:13:29.105Z,14.25
2024-01-05T19:18:21.150Z,14.32
2024-01-05T19:23:13.236Z,14.15
2024-01-05T19:28:05.456Z,14.55
2024-01-05T19:32:57.843Z,12.10
2024-01-05T19:37:51.289Z,13.35
2024-01-05T19:42:43.190Z,13.57
2024-01-05T19:47:35.223Z,12.20
2024-01-05T19:52:27.121Z,11.60
2024-01-05T19:57:19.047Z,11.38
2024-01-05T20:02:11.121Z,11.43
2024-01-05T20:07:03.022Z,13.38
2024-01-05T20:11:55.026Z,10.57
2024-01-05T20:16:48.263Z,11.07
2024-01-05T20:21:40.320Z,9.80
2024-01-05T20:26:32.303Z,8.75
2024-01-05T20:31:24.424Z,9.35
2024-01-05T20:36:20.062Z,9.00
2024-01-05T20:41:12.160Z,8.57
2024-01-05T20:46:04.167Z,9.30
2024-01-05T20:50:55.965Z,9.10
2024-01-05T20:55:50.214Z,10.38
2024-01-05T21:00:42.129Z,7.93
2024-01-05T21:05:35.807Z,8.85
2024-01-05T21:10:27.728Z,10.80
2024-01-05T21:15:19.556Z,10.80
2024-01-05T21:20:11.746Z,10.68
2024-01-05T21:25:06.858Z,10.45
2024-01-05T21:29:59.055Z,7.22
2024-01-05T21:34:51.136Z,11.32
2024-01-05T21:39:43.208Z,7.13
2024-01-05T21:44:35.137Z,8.55
2024-01-05T21:49:27.831Z,7.78
2024-01-05T21:54:20.051Z,4.80
2024-01-05T21:59:12.210Z,4.38
2024-01-05T22:04:04.722Z,5.15
2024-01-05T22:08:57.184Z,4.90
2024-01-05T22:13:49.061Z,4.35
2024-01-05T22:18:40.960Z,3.78
2024-01-05T22:23:32.792Z,2.92
2024-01-05T22:28:25.378Z,3.58
2024-01-05T22:33:17.374Z,4.80
2024-01-05T22:38:09.393Z,3.03
2024-01-05T22:43:01.527Z,3.45
2024-01-05T22:47:53.538Z,5.00
2024-01-05T22:52:45.531Z,5.47
2024-01-05T22:57:39.130Z,2.28
2024-01-05T23:02:30.999Z,3.42
2024-01-05T23:07:23.045Z,3.58
2024-01-05T23:12:14.935Z,2.95
2024-01-05T23:17:06.897Z,2.40
2024-01-05T23:21:58.852Z,3.40
2024-01-05T23:26:50.710Z,2.15
2024-01-05T23:31:42.823Z,2.90
2024-01-05T23:36:35.006Z,2.50
2024-01-05T23:41:26.975Z,2.92
2024-01-05T23:46:18.934Z,2.47
2024-01-05T23:51:11.375Z,2.15
2024-01-05T23:56:03.275Z,1.75
